Time;durP1;ratioP1;P1;durP2;ratioP2;P2;SDS_P1;SDS_P2;PMS_P1;PMS_P2;Temp;Humidity;BMP_temperature;BMP_pressure;BME280_temperature;BME280_humidity;BME280_pressure;Samples;Min_cycle;Max_cycle;Signal;HPM_P1;HPM_P2
2021/11/08 00:00:05;;;;;;;5.13;3.17;;;;;;;;;;5034590;28;20230;-85
2021/11/08 00:02:33;;;;;;;6.78;3.10;;;;;;;;;;5034380;28;20620;-84
2021/11/08 00:05:01;;;;;;;8.20;2.97;;;;;;;;;;5034763;28;20234;-86
2021/11/08 00:07:28;;;;;;;10.02;3.40;;;;;;;;;;5034556;28;20630;-86
2021/11/08 00:09:56;;;;;;;8.20;2.47;;;;;;;;;;5034295;28;20202;-87
2021/11/08 00:12:24;;;;;;;6.22;2.92;;;;;;;;;;5035379;28;20199;-86
2021/11/08 00:14:54;;;;;;;4.72;2.33;;;;;;;;;;5034665;28;20280;-86
2021/11/08 00:17:48;;;;;;;6.63;3.33;;;;;;;;;;5034593;28;20714;-84
2021/11/08 00:20:22;;;;;;;10.15;3.35;;;;;;;;;;5033953;28;20202;-86
2021/11/08 00:22:49;;;;;;;8.25;3.28;;;;;;;;;;5033907;28;20199;-85
2021/11/08 00:25:17;;;;;;;7.63;3.15;;;;;;;;;;5034206;28;20309;-86
2021/11/08 00:27:45;;;;;;;7.45;2.75;;;;;;;;;;5034032;28;20578;-86
2021/11/08 00:30:13;;;;;;;9.13;4.35;;;;;;;;;;5034264;28;20206;-86
2021/11/08 00:32:42;;;;;;;8.88;3.65;;;;;;;;;;5034024;28;20602;-83
2021/11/08 00:35:12;;;;;;;5.95;2.60;;;;;;;;;;5033623;28;20222;-86
2021/11/08 00:37:39;;;;;;;10.70;3.80;;;;;;;;;;5033831;28;20201;-86
2021/11/08 00:40:10;;;;;;;4.70;2.72;;;;;;;;;;5034111;28;20195;-86
2021/11/08 00:42:37;;;;;;;6.35;2.58;;;;;;;;;;5033653;28;20661;-84
2021/11/08 00:45:06;;;;;;;5.25;3.08;;;;;;;;;;5033700;28;20229;-86
2021/11/08 00:47:34;;;;;;;5.10;2.72;;;;;;;;;;5033534;28;20210;-84
2021/11/08 00:50:04;;;;;;;6.38;2.90;;;;;;;;;;5034083;28;20209;-84
2021/11/08 00:52:31;;;;;;;3.63;2.17;;;;;;;;;;5033207;28;20198;-87
2021/11/08 00:54:59;;;;;;;4.95;2.60;;;;;;;;;;5033541;28;20223;-88
2021/11/08 00:57:31;;;;;;;6.55;2.30;;;;;;;;;;5033498;28;20202;-86
2021/11/08 00:59:59;;;;;;;5.38;2.53;;;;;;;;;;5033403;28;20569;-86
2021/11/08 01:02:29;;;;;;;5.72;2.80;;;;;;;;;;5033194;28;20679;-86
2021/11/08 01:04:59;;;;;;;7.00;2.85;;;;;;;;;;5032827;28;20708;-88
2021/11/08 01:07:28;;;;;;;11.45;2.95;;;;;;;;;;5032903;28;20591;-87
2021/11/08 01:09:56;;;;;;;16.73;3.25;;;;;;;;;;5033183;28;20602;-86
2021/11/08 01:12:25;;;;;;;5.55;1.80;;;;;;;;;;5033519;28;20660;-87
2021/11/08 01:14:53;;;;;;;4.22;1.90;;;;;;;;;;5033776;28;20276;-84
2021/11/08 01:17:21;;;;;;;6.32;1.75;;;;;;;;;;5033476;28;20198;-83
2021/11/08 01:19:50;;;;;;;5.88;2.58;;;;;;;;;;5033254;28;20616;-85
2021/11/08 01:22:18;;;;;;;6.68;2.75;;;;;;;;;;5033058;28;20237;-86
2021/11/08 01:24:53;;;;;;;4.60;2.42;;;;;;;;;;5032962;28;20313;-86
2021/11/08 01:27:23;;;;;;;5.30;2.65;;;;;;;;;;5033011;28;20309;-86
2021/11/08 01:29:51;;;;;;;4.65;2.25;;;;;;;;;;5032914;28;20213;-86
2021/11/08 01:32:18;;;;;;;3.25;2.70;;;;;;;;;;5033011;28;20213;-86
2021/11/08 01:34:46;;;;;;;4.22;2.25;;;;;;;;;;5032797;28;20233;-85
2021/11/08 01:37:17;;;;;;;4.50;2.78;;;;;;;;;;5033029;28;20198;-85
2021/11/08 01:39:46;;;;;;;3.97;2.33;;;;;;;;;;5033084;28;20191;-84
2021/11/08 01:42:16;;;;;;;10.07;2.92;;;;;;;;;;5033016;28;20182;-85
2021/11/08 01:44:44;;;;;;;6.53;2.65;;;;;;;;;;5032537;28;20222;-84
2021/11/08 01:47:11;;;;;;;11.02;3.10;;;;;;;;;;5032911;28;20229;-83
2021/11/08 01:49:40;;;;;;;8.90;3.15;;;;;;;;;;5033244;28;20734;-83
2021/11/08 01:52:11;;;;;;;5.32;2.58;;;;;;;;;;5033688;28;20289;-85
2021/11/08 01:54:39;;;;;;;5.50;3.17;;;;;;;;;;5032920;28;20700;-84
2021/11/08 01:57:08;;;;;;;7.05;3.50;;;;;;;;;;5032732;28;20656;-84
2021/11/08 01:59:36;;;;;;;6.22;2.30;;;;;;;;;;5032971;28;20210;-85
2021/11/08 02:02:04;;;;;;;5.28;2.25;;;;;;;;;;5033159;28;20197;-86
2021/11/08 02:04:32;;;;;;;4.05;2.42;;;;;;;;;;5035624;28;20233;-86
2021/11/08 02:06:59;;;;;;;6.68;2.53;;;;;;;;;;5036798;28;20228;-86
2021/11/08 02:09:28;;;;;;;4.47;2.25;;;;;;;;;;5038386;28;20293;-86
2021/11/08 02:11:56;;;;;;;4.82;2.28;;;;;;;;;;5039272;28;20295;-85
2021/11/08 02:14:25;;;;;;;9.60;3.10;;;;;;;;;;5039331;28;20586;-86
2021/11/08 02:16:52;;;;;;;9.52;3.00;;;;;;;;;;5038239;28;20209;-86
2021/11/08 02:19:20;;;;;;;8.40;3.22;;;;;;;;;;5037888;28;20206;-86
2021/11/08 02:21:51;;;;;;;9.32;2.97;;;;;;;;;;5037566;28;20210;-86
2021/11/08 02:24:21;;;;;;;5.20;2.58;;;;;;;;;;5036311;28;20230;-88
2021/11/08 02:26:48;;;;;;;7.20;2.70;;;;;;;;;;5036751;28;20217;-86
2021/11/08 02:29:16;;;;;;;8.00;3.03;;;;;;;;;;5036871;28;20211;-86
2021/11/08 02:31:43;;;;;;;6.95;2.38;;;;;;;;;;5037214;28;20202;-85
2021/11/08 02:34:11;;;;;;;6.47;2.40;;;;;;;;;;5036279;28;20232;-85
2021/11/08 02:36:42;;;;;;;6.07;2.60;;;;;;;;;;5036502;28;20545;-84
2021/11/08 02:39:15;;;;;;;4.63;3.05;;;;;;;;;;5037635;28;20206;-86
2021/11/08 02:41:43;;;;;;;8.48;3.13;;;;;;;;;;5037298;28;20276;-85
2021/11/08 02:44:11;;;;;;;6.28;2.97;;;;;;;;;;5035998;28;20233;-86
2021/11/08 02:46:41;;;;;;;5.25;2.80;;;;;;;;;;5035957;28;20264;-87
2021/11/08 02:49:10;;;;;;;5.45;3.20;;;;;;;;;;5036366;28;20222;-86
2021/11/08 02:51:43;;;;;;;8.40;2.83;;;;;;;;;;5035995;28;20198;-85
2021/11/08 02:54:21;;;;;;;4.25;1.98;;;;;;;;;;5035712;28;20232;-86
2021/11/08 02:56:49;;;;;;;6.82;3.03;;;;;;;;;;5035969;28;20679;-85
2021/11/08 02:59:16;;;;;;;3.15;2.35;;;;;;;;;;5036053;28;20206;-87
2021/11/08 03:01:46;;;;;;;4.78;2.08;;;;;;;;;;5035791;28;20208;-85
2021/11/08 03:04:17;;;;;;;8.10;2.97;;;;;;;;;;5035660;28;20247;-85
2021/11/08 03:06:44;;;;;;;8.93;3.08;;;;;;;;;;5036492;28;20206;-86
2021/11/08 03:09:18;;;;;;;4.35;2.40;;;;;;;;;;5035520;28;20672;-87
2021/11/08 03:11:45;;;;;;;9.63;3.25;;;;;;;;;;5035490;28;20225;-87
2021/11/08 03:14:15;;;;;;;4.57;2.75;;;;;;;;;;5035041;28;20226;-87
2021/11/08 03:16:45;;;;;;;8.57;4.03;;;;;;;;;;5034509;28;20691;-88
2021/11/08 03:19:17;;;;;;;7.35;2.47;;;;;;;;;;5034252;28;20683;-87
2021/11/08 03:21:46;;;;;;;8.65;3.53;;;;;;;;;;5035027;28;20297;-88
2021/11/08 03:24:19;;;;;;;7.90;3.08;;;;;;;;;;5035099;28;20229;-88
2021/11/08 03:26:49;;;;;;;5.85;2.50;;;;;;;;;;5035528;28;20293;-87
2021/11/08 03:29:18;;;;;;;10.02;3.47;;;;;;;;;;5035785;28;20213;-85
2021/11/08 03:31:49;;;;;;;7.22;3.10;;;;;;;;;;5035242;28;20259;-85
2021/11/08 03:34:18;;;;;;;8.73;2.92;;;;;;;;;;5035356;28;20229;-85
2021/11/08 03:36:49;;;;;;;5.13;2.58;;;;;;;;;;5034987;28;20664;-86
2021/11/08 03:39:18;;;;;;;5.45;2.78;;;;;;;;;;5035263;28;20202;-87
2021/11/08 03:41:46;;;;;;;7.38;2.95;;;;;;;;;;5034960;28;20633;-88
2021/11/08 03:44:13;;;;;;;7.53;3.28;;;;;;;;;;5034651;28;20587;-87
2021/11/08 03:46:41;;;;;;;9.27;3.10;;;;;;;;;;5034356;28;20320;-87
2021/11/08 03:49:08;;;;;;;5.72;2.42;;;;;;;;;;5034576;28;20229;-88
2021/11/08 03:51:37;;;;;;;4.30;2.40;;;;;;;;;;5034793;28;20240;-87
2021/11/08 03:54:06;;;;;;;8.48;3.33;;;;;;;;;;5033988;28;20668;-87
2021/11/08 03:56:35;;;;;;;6.63;2.72;;;;;;;;;;5034815;28;20194;-86
2021/11/08 03:59:03;;;;;;;6.53;2.85;;;;;;;;;;5034628;28;20202;-85
2021/11/08 04:01:35;;;;;;;6.28;3.03;;;;;;;;;;5034106;28;20206;-85
2021/11/08 04:04:03;;;;;;;12.48;3.67;;;;;;;;;;5034336;28;20199;-86
2021/11/08 04:06:31;;;;;;;8.00;3.45;;;;;;;;;;5034352;28;20213;-86
2021/11/08 04:08:59;;;;;;;7.72;2.78;;;;;;;;;;5034851;28;20696;-86
2021/11/08 04:11:27;;;;;;;4.60;2.65;;;;;;;;;;5034514;28;20282;-85
2021/11/08 04:13:58;;;;;;;5.88;3.80;;;;;;;;;;5033989;28;20270;-86
2021/11/08 04:16:27;;;;;;;6.82;2.70;;;;;;;;;;5034066;28;20233;-86
2021/11/08 04:18:56;;;;;;;5.30;3.03;;;;;;;;;;5033898;28;20212;-85
2021/11/08 04:21:24;;;;;;;10.15;3.38;;;;;;;;;;5034022;28;20199;-86
2021/11/08 04:23:51;;;;;;;6.03;2.67;;;;;;;;;;5034565;28;20206;-86
2021/11/08 04:26:21;;;;;;;5.85;2.60;;;;;;;;;;5034200;28;20213;-86
2021/11/08 04:28:53;;;;;;;5.65;3.05;;;;;;;;;;5033960;28;20234;-87
2021/11/08 04:31:22;;;;;;;9.50;2.90;;;;;;;;;;5034775;28;20209;-86
2021/11/08 04:33:52;;;;;;;3.67;2.20;;;;;;;;;;5033807;28;20229;-86
2021/11/08 04:36:44;;;;;;;7.40;3.97;;;;;;;;;;5034354;28;20551;-87
2021/11/08 04:39:18;;;;;;;6.00;2.15;;;;;;;;;;5033422;28;20202;-86
2021/11/08 04:41:52;;;;;;;4.65;2.47;;;;;;;;;;5033380;28;20210;-85
2021/11/08 04:47:48;;;;;;;5.82;1.98;;;;;;;;;;5033238;28;20205;-85
2021/11/08 04:50:22;;;;;;;7.63;2.40;;;;;;;;;;5032790;28;20229;-85
2021/11/08 04:53:05;;;;;;;5.85;2.28;;;;;;;;;;5032919;28;20236;-86
2021/11/08 04:55:48;;;;;;;6.75;2.40;;;;;;;;;;5033450;28;20240;-87
2021/11/08 04:58:47;;;;;;;3.40;2.05;;;;;;;;;;5032955;28;20202;-86
2021/11/08 05:21:16;;;;;;;4.28;2.55;;;;;;;;;;5032797;28;20202;-86
2021/11/08 05:32:04;;;;;;;4.10;2.15;;;;;;;;;;5032556;28;20202;-86
2021/11/08 05:34:31;;;;;;;3.35;2.25;;;;;;;;;;5032078;28;20219;-85
2021/11/08 05:37:00;;;;;;;5.65;2.03;;;;;;;;;;5032468;28;20206;-86
2021/11/08 05:39:28;;;;;;;3.75;2.20;;;;;;;;;;5032258;28;20202;-85
2021/11/08 05:41:56;;;;;;;3.17;2.20;;;;;;;;;;5033659;28;20207;-86
2021/11/08 05:44:24;;;;;;;8.27;2.10;;;;;;;;;;5032204;28;20624;-86
2021/11/08 05:46:51;;;;;;;3.42;1.73;;;;;;;;;;5032504;28;20201;-86
2021/11/08 05:49:19;;;;;;;5.25;2.47;;;;;;;;;;5032201;28;20599;-86
2021/11/08 05:51:47;;;;;;;2.25;2.00;;;;;;;;;;5032670;28;20206;-86
2021/11/08 05:54:19;;;;;;;4.32;1.90;;;;;;;;;;5033030;28;20230;-86
2021/11/08 05:57:04;;;;;;;3.88;2.70;;;;;;;;;;5032444;28;20202;-86
2021/11/08 06:49:23;;;;;;;4.82;1.55;;;;;;;;;;5031966;28;20233;-87
2021/11/08 06:51:53;;;;;;;5.05;2.17;;;;;;;;;;5035056;28;20206;-87
2021/11/08 06:54:23;;;;;;;3.22;1.98;;;;;;;;;;5036289;28;20303;-87
2021/11/08 06:56:54;;;;;;;2.97;1.70;;;;;;;;;;5036016;28;20202;-88
2021/11/08 06:59:27;;;;;;;2.53;1.55;;;;;;;;;;5035798;28;20191;-87
2021/11/08 07:01:56;;;;;;;1.98;1.30;;;;;;;;;;5036020;28;20202;-87
2021/11/08 07:04:25;;;;;;;3.30;1.77;;;;;;;;;;5036043;28;20242;-86
2021/11/08 07:06:59;;;;;;;5.85;2.22;;;;;;;;;;5035729;28;20198;-88
2021/11/08 07:09:28;;;;;;;3.05;1.73;;;;;;;;;;5035385;28;20225;-87
2021/11/08 07:11:56;;;;;;;2.53;1.50;;;;;;;;;;5035568;28;20185;-87
2021/11/08 07:14:26;;;;;;;5.32;2.90;;;;;;;;;;5035706;28;20222;-87
2021/11/08 07:16:55;;;;;;;4.13;1.60;;;;;;;;;;5035336;28;20210;-87
2021/11/08 07:19:25;;;;;;;3.70;1.50;;;;;;;;;;5035522;28;20198;-86
2021/11/08 07:22:29;;;;;;;2.88;2.03;;;;;;;;;;5052564;28;20264;-86
2021/11/08 07:24:57;;;;;;;1.67;1.40;;;;;;;;;;5035342;28;20225;-86
2021/11/08 07:27:25;;;;;;;6.03;2.38;;;;;;;;;;5035456;28;20194;-87
2021/11/08 07:30:09;;;;;;;2.30;1.60;;;;;;;;;;5034573;28;20210;-87
2021/11/08 07:32:38;;;;;;;9.85;2.00;;;;;;;;;;5034870;28;20252;-87
2021/11/08 07:35:07;;;;;;;2.58;1.75;;;;;;;;;;5035682;28;20224;-88
2021/11/08 07:38:01;;;;;;;1.90;1.35;;;;;;;;;;5035934;28;20286;-88
2021/11/08 07:40:40;;;;;;;1.23;1.13;;;;;;;;;;5037766;28;20189;-88
2021/11/08 07:43:38;;;;;;;1.33;1.08;;;;;;;;;;5035362;28;20545;-88
2021/11/08 07:46:15;;;;;;;3.67;1.30;;;;;;;;;;5034329;28;20285;-89
2021/11/08 07:48:54;;;;;;;1.60;1.30;;;;;;;;;;5035829;28;20206;-86
2021/11/08 07:51:23;;;;;;;2.80;1.40;;;;;;;;;;5036249;28;20313;-88
2021/11/08 07:53:51;;;;;;;1.48;1.10;;;;;;;;;;5036334;28;20202;-86
2021/11/08 07:56:19;;;;;;;3.22;1.83;;;;;;;;;;5036596;28;20281;-88
2021/11/08 07:58:48;;;;;;;4.75;2.25;;;;;;;;;;5035833;28;20286;-87
2021/11/08 08:01:39;;;;;;;2.13;1.42;;;;;;;;;;5037036;28;20186;-87
2021/11/08 08:04:06;;;;;;;8.82;3.17;;;;;;;;;;5035750;28;20202;-87
2021/11/08 08:06:36;;;;;;;2.47;1.67;;;;;;;;;;5041249;28;20677;-87
2021/11/08 08:09:04;;;;;;;2.72;1.58;;;;;;;;;;5057007;28;20204;-88
2021/11/08 08:11:32;;;;;;;6.18;3.00;;;;;;;;;;5055886;28;20292;-87
2021/11/08 08:14:07;;;;;;;3.80;1.50;;;;;;;;;;5054828;28;20175;-87
2021/11/08 08:16:35;;;;;;;6.05;2.30;;;;;;;;;;5054203;28;20241;-87
2021/11/08 08:19:05;;;;;;;5.80;2.15;;;;;;;;;;5037001;28;20204;-89
2021/11/08 08:21:34;;;;;;;2.70;1.58;;;;;;;;;;5032797;28;20705;-88
2021/11/08 08:24:11;;;;;;;3.22;2.13;;;;;;;;;;5033954;28;20266;-88
2021/11/08 08:26:55;;;;;;;3.05;2.30;;;;;;;;;;5033840;28;20187;-88
2021/11/08 08:29:32;;;;;;;2.75;1.90;;;;;;;;;;5033308;28;20647;-88
2021/11/08 08:32:01;;;;;;;3.17;1.83;;;;;;;;;;5033828;28;20213;-88
2021/11/08 08:34:38;;;;;;;3.90;2.28;;;;;;;;;;5033332;28;20254;-88
2021/11/08 08:37:24;;;;;;;4.60;1.88;;;;;;;;;;5033752;28;20187;-89
2021/11/08 08:40:00;;;;;;;2.17;1.98;;;;;;;;;;5033652;28;20199;-88
2021/11/08 08:42:34;;;;;;;4.80;2.42;;;;;;;;;;5033248;28;20629;-88
2021/11/08 08:45:16;;;;;;;5.65;2.20;;;;;;;;;;5033509;28;20222;-88
2021/11/08 08:47:44;;;;;;;7.30;2.90;;;;;;;;;;5032471;28;20206;-88
2021/11/08 08:50:13;;;;;;;6.25;3.28;;;;;;;;;;5034058;28;20210;-87
2021/11/08 08:52:42;;;;;;;5.10;2.55;;;;;;;;;;5033820;28;20183;-88
2021/11/08 08:55:15;;;;;;;5.85;2.17;;;;;;;;;;5034014;28;20233;-88
2021/11/08 08:57:51;;;;;;;6.70;2.97;;;;;;;;;;5034158;28;20617;-87
2021/11/08 09:00:25;;;;;;;4.60;2.67;;;;;;;;;;5033650;28;20195;-88
2021/11/08 09:02:55;;;;;;;3.28;1.95;;;;;;;;;;5033030;28;20187;-88
2021/11/08 09:05:26;;;;;;;3.70;2.03;;;;;;;;;;5033046;28;20602;-88
2021/11/08 09:07:58;;;;;;;1.67;1.58;;;;;;;;;;5033072;28;20199;-88
2021/11/08 09:10:32;;;;;;;3.00;1.67;;;;;;;;;;5033181;28;20198;-88
2021/11/08 09:13:00;;;;;;;3.67;2.00;;;;;;;;;;5032887;28;20193;-88
2021/11/08 09:15:35;;;;;;;3.88;3.47;;;;;;;;;;5033176;28;20218;-88
2021/11/08 09:18:13;;;;;;;2.30;1.98;;;;;;;;;;5034430;28;20272;-88
2021/11/08 09:20:49;;;;;;;2.75;2.22;;;;;;;;;;5033354;28;20229;-88
2021/11/08 09:23:19;;;;;;;2.67;1.65;;;;;;;;;;5036020;28;20222;-89
2021/11/08 09:25:47;;;;;;;5.10;2.65;;;;;;;;;;5037207;28;20224;-87
2021/11/08 09:28:15;;;;;;;5.32;3.28;;;;;;;;;;5036549;28;20179;-87
2021/11/08 09:30:45;;;;;;;4.90;2.40;;;;;;;;;;5036928;28;20213;-87
2021/11/08 09:33:20;;;;;;;2.20;1.45;;;;;;;;;;5037724;28;20183;-87
2021/11/08 09:35:49;;;;;;;2.25;1.98;;;;;;;;;;5036121;28;20274;-87
2021/11/08 09:38:21;;;;;;;4.10;2.13;;;;;;;;;;5034505;28;20190;-88
2021/11/08 09:40:50;;;;;;;1.73;1.35;;;;;;;;;;5035999;28;20210;-87
2021/11/08 09:43:20;;;;;;;4.35;2.28;;;;;;;;;;5034874;28;20193;-88
2021/11/08 09:45:51;;;;;;;6.90;2.15;;;;;;;;;;5033304;28;20217;-88
2021/11/08 09:48:22;;;;;;;6.05;2.03;;;;;;;;;;5032062;28;20376;-88
2021/11/08 09:51:00;;;;;;;1.73;1.30;;;;;;;;;;5032182;28;20221;-87
2021/11/08 09:53:47;;;;;;;7.07;2.33;;;;;;;;;;5032577;28;20204;-87
2021/11/08 09:56:17;;;;;;;2.25;1.70;;;;;;;;;;5032985;28;20202;-87
2021/11/08 09:58:44;;;;;;;4.15;2.42;;;;;;;;;;5032505;28;20554;-88
2021/11/08 10:01:58;;;;;;;5.22;2.38;;;;;;;;;;5032633;28;20201;-87
2021/11/08 10:04:26;;;;;;;3.63;2.13;;;;;;;;;;5031736;28;20228;-89
2021/11/08 10:06:55;;;;;;;4.18;2.05;;;;;;;;;;5031774;28;20200;-90
2021/11/08 10:09:22;;;;;;;4.43;1.83;;;;;;;;;;5032207;28;20514;-90
2021/11/08 10:11:51;;;;;;;6.55;2.30;;;;;;;;;;5031558;28;20241;-90
2021/11/08 10:14:20;;;;;;;3.20;1.50;;;;;;;;;;5032087;28;20233;-90
2021/11/08 10:16:51;;;;;;;3.83;1.92;;;;;;;;;;5031673;28;20225;-89
2021/11/08 10:19:22;;;;;;;2.92;2.30;;;;;;;;;;5031894;28;20304;-90
2021/11/08 10:21:54;;;;;;;2.05;1.90;;;;;;;;;;5032258;28;20200;-89
2021/11/08 10:24:26;;;;;;;3.92;2.22;;;;;;;;;;5031747;28;20228;-89
2021/11/08 10:26:55;;;;;;;2.90;2.28;;;;;;;;;;5035750;28;20199;-89
2021/11/08 10:29:25;;;;;;;2.65;2.45;;;;;;;;;;5035729;28;20198;-89
2021/11/08 10:31:56;;;;;;;3.97;2.45;;;;;;;;;;5035590;28;20222;-89
2021/11/08 10:34:25;;;;;;;4.28;2.38;;;;;;;;;;5035819;28;20222;-89
2021/11/08 10:37:02;;;;;;;5.25;3.67;;;;;;;;;;5036145;28;20217;-88
2021/11/08 10:39:32;;;;;;;2.40;1.60;;;;;;;;;;5035940;28;20269;-89
2021/11/08 10:42:00;;;;;;;2.30;1.70;;;;;;;;;;5036501;28;20198;-88
2021/11/08 10:44:29;;;;;;;1.67;1.52;;;;;;;;;;5035363;28;20244;-88
2021/11/08 10:47:00;;;;;;;1.65;1.50;;;;;;;;;;5035495;28;20644;-88
2021/11/08 10:49:34;;;;;;;2.17;1.70;;;;;;;;;;5035675;28;20212;-89
2021/11/08 10:52:05;;;;;;;3.53;2.55;;;;;;;;;;5035853;28;20226;-86
2021/11/08 10:54:37;;;;;;;2.38;2.15;;;;;;;;;;5035634;28;20237;-89
2021/11/08 10:57:07;;;;;;;2.13;1.75;;;;;;;;;;5035829;28;20237;-88
2021/11/08 10:59:42;;;;;;;3.15;2.00;;;;;;;;;;5035432;28;20301;-88
2021/11/08 11:02:11;;;;;;;3.78;2.10;;;;;;;;;;5035103;28;20202;-87
2021/11/08 11:04:44;;;;;;;3.78;2.20;;;;;;;;;;5035212;28;20270;-88
2021/11/08 11:07:15;;;;;;;3.58;2.20;;;;;;;;;;5035106;28;20583;-88
2021/11/08 11:09:43;;;;;;;2.33;1.95;;;;;;;;;;5035196;28;20187;-88
2021/11/08 11:12:15;;;;;;;2.25;1.48;;;;;;;;;;5034942;28;20265;-88
2021/11/08 11:14:45;;;;;;;8.85;2.38;;;;;;;;;;5035009;28;20260;-88
2021/11/08 11:17:15;;;;;;;5.90;2.22;;;;;;;;;;5035245;28;20210;-88
2021/11/08 11:19:43;;;;;;;3.92;1.98;;;;;;;;;;5034676;28;20202;-88
2021/11/08 11:22:17;;;;;;;5.38;2.33;;;;;;;;;;5034427;28;20206;-89
2021/11/08 11:24:48;;;;;;;3.63;1.92;;;;;;;;;;5034680;28;20229;-88
2021/11/08 11:27:29;;;;;;;5.38;2.40;;;;;;;;;;5034504;28;20206;-88
2021/11/08 11:30:13;;;;;;;3.45;2.33;;;;;;;;;;5034611;28;20211;-88
2021/11/08 11:32:42;;;;;;;4.18;2.30;;;;;;;;;;5034318;28;20226;-88
2021/11/08 11:35:16;;;;;;;5.93;2.75;;;;;;;;;;5034300;28;20226;-88
2021/11/08 11:37:56;;;;;;;4.63;2.25;;;;;;;;;;5034219;28;20202;-88
2021/11/08 11:40:25;;;;;;;3.95;2.13;;;;;;;;;;5034667;28;20229;-88
2021/11/08 11:42:56;;;;;;;2.60;2.03;;;;;;;;;;5034164;28;20206;-88
2021/11/08 11:45:24;;;;;;;2.22;1.40;;;;;;;;;;5034293;28;20222;-88
2021/11/08 11:48:01;;;;;;;2.30;2.10;;;;;;;;;;5034167;28;20205;-88
2021/11/08 11:50:30;;;;;;;2.33;2.00;;;;;;;;;;5034223;28;20582;-89
2021/11/08 11:53:00;;;;;;;2.33;1.60;;;;;;;;;;5033934;28;20226;-88
2021/11/08 11:55:28;;;;;;;7.47;2.10;;;;;;;;;;5033893;28;20222;-88
2021/11/08 11:57:57;;;;;;;3.15;1.90;;;;;;;;;;5034416;28;20202;-87
2021/11/08 12:00:25;;;;;;;2.25;1.48;;;;;;;;;;5034213;28;20194;-88
2021/11/08 12:02:52;;;;;;;1.50;1.17;;;;;;;;;;5034027;28;20494;-88
2021/11/08 12:05:20;;;;;;;4.68;2.22;;;;;;;;;;5033729;28;20241;-88
2021/11/08 12:07:50;;;;;;;4.72;1.88;;;;;;;;;;5034097;28;20186;-88
2021/11/08 12:10:19;;;;;;;6.70;2.17;;;;;;;;;;5034082;28;20195;-89
2021/11/08 12:12:47;;;;;;;2.80;1.80;;;;;;;;;;5035006;28;20230;-87
2021/11/08 12:15:17;;;;;;;4.13;2.47;;;;;;;;;;5033573;28;20228;-89
2021/11/08 12:17:46;;;;;;;2.90;1.50;;;;;;;;;;5033833;28;20361;-88
2021/11/08 12:20:18;;;;;;;1.55;1.30;;;;;;;;;;5033222;28;20696;-88
2021/11/08 12:22:46;;;;;;;2.28;1.67;;;;;;;;;;5033748;28;20234;-89
2021/11/08 12:25:17;;;;;;;2.60;1.58;;;;;;;;;;5033697;28;20646;-89
2021/11/08 12:27:49;;;;;;;4.97;1.98;;;;;;;;;;5033419;28;20208;-89
2021/11/08 12:30:20;;;;;;;2.45;1.67;;;;;;;;;;5033591;28;20206;-88
2021/11/08 12:32:50;;;;;;;3.08;1.60;;;;;;;;;;5033204;28;20583;-88
2021/11/08 12:35:21;;;;;;;3.92;2.15;;;;;;;;;;5033373;28;20241;-89
2021/11/08 12:37:49;;;;;;;3.55;1.83;;;;;;;;;;5033320;28;20269;-88
2021/11/08 12:40:21;;;;;;;4.20;2.83;;;;;;;;;;5033376;28;20207;-88
2021/11/08 12:42:53;;;;;;;4.10;1.80;;;;;;;;;;5033350;28;20217;-88
2021/11/08 12:45:26;;;;;;;3.13;1.92;;;;;;;;;;5032984;28;20245;-88
2021/11/08 12:48:02;;;;;;;3.65;1.80;;;;;;;;;;5032155;28;20280;-89
2021/11/08 12:50:43;;;;;;;4.65;2.05;;;;;;;;;;5033072;28;20213;-89
2021/11/08 12:53:23;;;;;;;1.95;1.50;;;;;;;;;;5032807;28;20218;-90
2021/11/08 12:55:51;;;;;;;2.70;2.00;;;;;;;;;;5032466;28;20214;-89
2021/11/08 12:58:20;;;;;;;3.35;1.90;;;;;;;;;;5032849;28;20206;-89
2021/11/08 13:00:52;;;;;;;4.30;1.90;;;;;;;;;;5032741;28;20237;-89
2021/11/08 13:03:35;;;;;;;3.90;2.10;;;;;;;;;;5032926;28;20571;-89
2021/11/08 13:06:04;;;;;;;1.63;1.50;;;;;;;;;;5032292;28;20610;-88
2021/11/08 13:08:34;;;;;;;5.18;1.90;;;;;;;;;;5032953;28;20212;-89
2021/11/08 13:11:10;;;;;;;4.40;1.80;;;;;;;;;;5032521;28;20687;-89
2021/11/08 13:13:40;;;;;;;2.00;1.60;;;;;;;;;;5032530;28;20257;-89
2021/11/08 13:16:14;;;;;;;6.25;2.97;;;;;;;;;;5032106;28;20225;-89
2021/11/08 13:18:45;;;;;;;4.05;1.67;;;;;;;;;;5026128;28;20228;-87
2021/11/08 13:21:24;;;;;;;4.45;1.75;;;;;;;;;;5033233;28;20190;-89
2021/11/08 13:23:55;;;;;;;2.38;1.70;;;;;;;;;;5033272;28;20633;-88
2021/11/08 13:26:49;;;;;;;3.55;2.55;;;;;;;;;;5033170;28;20183;-89
2021/11/08 13:29:21;;;;;;;5.65;2.55;;;;;;;;;;5034850;28;20197;-86
2021/11/08 13:31:51;;;;;;;6.22;3.40;;;;;;;;;;5033290;28;20179;-88
2021/11/08 13:34:19;;;;;;;4.68;1.73;;;;;;;;;;5032518;28;20226;-88
2021/11/08 13:37:04;;;;;;;4.22;2.08;;;;;;;;;;5031690;28;20892;-89
2021/11/08 13:40:21;;;;;;;5.00;2.72;;;;;;;;;;5032616;28;20206;-90
2021/11/08 13:43:22;;;;;;;6.20;5.10;;;;;;;;;;5032458;28;20206;-89
2021/11/08 13:45:55;;;;;;;3.40;2.47;;;;;;;;;;5031391;28;20218;-90
2021/11/08 13:48:30;;;;;;;4.07;1.95;;;;;;;;;;5032270;28;20668;-89
2021/11/08 13:51:08;;;;;;;2.67;2.00;;;;;;;;;;5032418;28;20198;-89
2021/11/08 13:54:28;;;;;;;3.15;1.85;;;;;;;;;;5031650;28;20317;-89
2021/11/08 13:57:18;;;;;;;4.80;2.30;;;;;;;;;;5028824;28;20195;-89
2021/11/08 14:00:46;;;;;;;2.03;1.77;;;;;;;;;;5034632;28;20205;-89
2021/11/08 14:03:26;;;;;;;3.50;1.48;;;;;;;;;;5036735;28;20277;-90
2021/11/08 14:06:57;;;;;;;3.03;1.90;;;;;;;;;;5036053;28;20313;-89
2021/11/08 14:09:47;;;;;;;2.28;1.20;;;;;;;;;;5036520;28;20202;-90
2021/11/08 14:12:41;;;;;;;2.33;1.40;;;;;;;;;;5036306;28;20189;-90
2021/11/08 14:15:21;;;;;;;4.22;1.83;;;;;;;;;;5036458;28;20230;-89
2021/11/08 14:17:55;;;;;;;1.60;1.35;;;;;;;;;;5035327;28;20244;-88
2021/11/08 14:20:23;;;;;;;3.25;1.88;;;;;;;;;;5035902;28;20194;-85
2021/11/08 14:22:53;;;;;;;2.30;1.70;;;;;;;;;;5036474;28;20622;-85
2021/11/08 14:25:39;;;;;;;3.40;2.22;;;;;;;;;;5036794;28;20692;-85
2021/11/08 14:28:17;;;;;;;4.47;1.70;;;;;;;;;;5037180;28;20201;-85
2021/11/08 14:30:50;;;;;;;3.75;1.13;;;;;;;;;;5035210;28;20206;-85
2021/11/08 14:33:32;;;;;;;2.45;1.45;;;;;;;;;;5035815;28;20197;-85
2021/11/08 14:36:15;;;;;;;3.05;1.58;;;;;;;;;;5035663;28;20218;-84
2021/11/08 14:38:51;;;;;;;1.77;1.42;;;;;;;;;;5045184;28;20622;-86
2021/11/08 14:41:20;;;;;;;1.13;1.05;;;;;;;;;;5056445;28;20193;-85
2021/11/08 14:44:02;;;;;;;2.38;1.08;;;;;;;;;;5056242;28;20202;-84
2021/11/08 14:46:42;;;;;;;2.33;2.03;;;;;;;;;;5056362;28;20186;-86
2021/11/08 14:49:14;;;;;;;1.38;1.17;;;;;;;;;;5055796;28;20182;-85
2021/11/08 14:51:49;;;;;;;1.80;1.52;;;;;;;;;;5051750;28;20186;-84
2021/11/08 14:54:53;;;;;;;2.60;0.95;;;;;;;;;;5039847;28;20217;-87
2021/11/08 14:57:25;;;;;;;0.80;0.80;;;;;;;;;;5042560;28;20190;-89
2021/11/08 14:59:55;;;;;;;2.35;1.67;;;;;;;;;;5035536;28;20202;-88
2021/11/08 15:02:27;;;;;;;1.70;1.30;;;;;;;;;;5035500;28;20187;-87
2021/11/08 15:04:58;;;;;;;1.98;1.10;;;;;;;;;;5039102;28;20230;-88
2021/11/08 15:07:40;;;;;;;1.38;0.80;;;;;;;;;;5052950;28;20229;-88
2021/11/08 15:10:11;;;;;;;3.33;2.28;;;;;;;;;;5034859;28;20209;-88
2021/11/08 15:12:47;;;;;;;4.10;1.40;;;;;;;;;;5034828;28;20641;-87
2021/11/08 15:15:28;;;;;;;2.53;1.30;;;;;;;;;;5035199;28;20236;-88
2021/11/08 15:18:01;;;;;;;0.82;0.82;;;;;;;;;;5035470;28;20186;-86
2021/11/08 15:20:42;;;;;;;1.13;1.02;;;;;;;;;;5015681;28;20591;-87
2021/11/08 15:23:16;;;;;;;0.90;0.90;;;;;;;;;;5028048;28;20344;-87
2021/11/08 15:25:46;;;;;;;1.27;1.10;;;;;;;;;;5035425;28;20218;-86
2021/11/08 15:28:19;;;;;;;0.98;0.88;;;;;;;;;;5035876;28;20195;-87
2021/11/08 15:30:52;;;;;;;1.15;1.00;;;;;;;;;;5034937;28;20187;-87
2021/11/08 15:33:29;;;;;;;1.10;1.00;;;;;;;;;;5035247;28;20191;-88
2021/11/08 15:36:01;;;;;;;1.10;1.00;;;;;;;;;;5035142;28;20230;-87
2021/11/08 15:38:35;;;;;;;0.90;0.90;;;;;;;;;;5034617;28;20193;-88
2021/11/08 15:41:07;;;;;;;1.40;0.80;;;;;;;;;;5035356;28;20205;-88
2021/11/08 15:43:38;;;;;;;1.98;1.35;;;;;;;;;;5035079;28;20210;-87
2021/11/08 15:46:17;;;;;;;2.42;0.93;;;;;;;;;;5034646;28;20305;-88
2021/11/08 15:49:25;;;;;;;0.90;0.90;;;;;;;;;;5034968;28;20194;-89
2021/11/08 15:52:19;;;;;;;1.40;1.30;;;;;;;;;;5015304;28;20181;-87
2021/11/08 15:54:57;;;;;;;1.33;1.23;;;;;;;;;;5021755;28;20229;-88
2021/11/08 15:57:27;;;;;;;1.00;1.00;;;;;;;;;;5034251;28;20186;-89
2021/11/08 16:00:02;;;;;;;2.53;1.38;;;;;;;;;;5034533;28;20669;-89
2021/11/08 16:02:38;;;;;;;1.23;1.13;;;;;;;;;;5034326;28;20186;-89
2021/11/08 16:05:08;;;;;;;3.40;1.60;;;;;;;;;;5034360;28;20602;-89
2021/11/08 16:07:46;;;;;;;2.67;1.30;;;;;;;;;;5035002;28;20198;-89
2021/11/08 16:10:56;;;;;;;2.95;1.70;;;;;;;;;;5035181;28;20285;-89
2021/11/08 16:13:45;;;;;;;3.95;1.95;;;;;;;;;;5035510;28;20187;-88
2021/11/08 16:16:17;;;;;;;4.00;2.75;;;;;;;;;;5034167;28;20681;-88
2021/11/08 16:18:51;;;;;;;1.60;0.95;;;;;;;;;;5034857;28;20213;-90
2021/11/08 16:21:20;;;;;;;3.75;1.50;;;;;;;;;;5034856;28;20709;-89
2021/11/08 16:23:50;;;;;;;1.48;0.93;;;;;;;;;;5033230;28;20285;-89
2021/11/08 16:26:57;;;;;;;2.70;1.50;;;;;;;;;;5034625;28;20218;-88
2021/11/08 16:29:43;;;;;;;2.47;1.58;;;;;;;;;;5034654;28;20206;-89
2021/11/08 16:33:04;;;;;;;2.95;1.35;;;;;;;;;;5034048;28;20289;-88
2021/11/08 16:35:41;;;;;;;3.35;1.73;;;;;;;;;;5033878;28;20237;-89
2021/11/08 16:38:12;;;;;;;2.10;1.15;;;;;;;;;;5034290;28;20194;-88
2021/11/08 16:40:44;;;;;;;1.92;1.10;;;;;;;;;;5034021;28;20563;-89